createdAt,value
2019-03-11T00:00:56.839Z,97695.37
2019-03-11T00:01:59.492Z,97689.42
2019-03-11T00:03:02.311Z,97695.64
2019-03-11T00:04:06.164Z,97686.75
2019-03-11T00:05:09.568Z,97688.05
2019-03-11T00:06:15.037Z,97686.63
2019-03-11T00:07:17.777Z,97685.49
2019-03-11T00:08:20.540Z,97685.49
2019-03-11T00:09:23.699Z,97684.20
2019-03-11T00:10:26.447Z,97684.80
2019-03-11T00:11:29.474Z,97686.38
2019-03-11T00:12:32.153Z,97684.17
2019-03-11T00:13:34.821Z,97684.17
2019-03-11T00:14:37.504Z,97678.55
2019-03-11T00:15:40.259Z,97683.42
2019-03-11T00:16:43.099Z,97674.23
2019-03-11T00:17:49.337Z,97670.42
2019-03-11T00:18:52.056Z,97670.42
2019-03-11T00:19:54.730Z,97674.68
2019-03-11T00:20:57.847Z,97680.08
2019-03-11T00:22:00.517Z,97671.98
2019-03-11T00:23:03.252Z,97667.66
2019-03-11T00:24:06.232Z,97676.74
2019-03-11T00:25:08.952Z,97666.87
2019-03-11T00:26:11.616Z,97666.87
2019-03-11T00:27:14.708Z,97676.50
2019-03-11T00:28:17.459Z,97666.55
2019-03-11T00:29:20.153Z,97672.72
2019-03-11T00:30:26.275Z,97654.45
2019-03-11T00:31:29.415Z,97671.27
2019-03-11T00:32:32.186Z,97660.27
2019-03-11T00:33:34.931Z,97652.38
2019-03-11T00:34:37.601Z,97652.38
2019-03-11T00:35:40.246Z,97646.28
2019-03-11T00:36:43.302Z,97646.28
2019-03-11T00:37:45.991Z,97658.66
2019-03-11T00:38:48.700Z,97651.76
2019-03-11T00:39:51.449Z,97667.88
2019-03-11T00:40:54.141Z,97664.37
2019-03-11T00:41:56.848Z,97663.50
2019-03-11T00:44:27.297Z,97653.47
2019-03-11T00:45:29.983Z,97653.47
2019-03-11T00:46:32.641Z,97661.15
2019-03-11T00:47:35.338Z,97670.58
2019-03-11T00:48:38.076Z,97670.58
2019-03-11T00:49:41.068Z,97654.17
2019-03-11T00:50:43.857Z,97664.89
2019-03-11T00:51:46.538Z,97664.89
2019-03-11T00:52:49.295Z,97649.03
2019-03-11T00:53:52.343Z,97649.03
2019-03-11T00:54:55.148Z,97642.86
2019-03-11T00:55:58.241Z,97642.86
2019-03-11T00:57:00.939Z,97636.52
2019-03-11T00:58:03.578Z,97639.47
2019-03-11T00:59:06.229Z,97640.13
2019-03-11T01:00:09.279Z,97642.81
2019-03-11T01:01:11.945Z,97641.76
2019-03-11T01:02:14.686Z,97641.76
2019-03-11T01:03:17.368Z,97630.72
2019-03-11T01:04:20.538Z,97642.81
2019-03-11T01:05:23.278Z,97648.16
2019-03-11T01:06:26.672Z,97609.36
2019-03-11T01:07:29.332Z,97633.05
2019-03-11T01:08:31.981Z,97636.49
2019-03-11T01:09:34.717Z,97623.55
2019-03-11T01:10:37.446Z,97627.78
2019-03-11T01:11:40.117Z,97624.04
2019-03-11T01:12:43.070Z,97633.16
2019-03-11T01:13:45.798Z,97633.16
2019-03-11T01:14:48.508Z,97626.80
2019-03-11T01:15:51.199Z,97636.46
2019-03-11T01:16:53.884Z,97646.42
2019-03-11T01:17:56.994Z,97632.17
2019-03-11T01:19:00.337Z,97638.13
2019-03-11T01:20:03.012Z,97646.87
2019-03-11T01:21:05.794Z,97637.98
2019-03-11T01:22:08.467Z,97637.55
2019-03-11T01:23:11.110Z,97636.30
2019-03-11T01:24:13.798Z,97637.69
2019-03-11T01:25:16.772Z,97638.83
2019-03-11T01:26:19.578Z,97621.95
2019-03-11T01:27:22.278Z,97652.45
2019-03-11T01:28:25.450Z,97652.45
2019-03-11T01:29:28.114Z,97653.57
2019-03-11T01:30:30.876Z,97587.45
2019-03-11T01:31:34.132Z,97587.45
2019-03-11T01:32:36.882Z,97642.06
2019-03-11T01:33:39.923Z,97611.50
2019-03-11T01:34:42.643Z,97625.73
2019-03-11T01:35:45.403Z,97623.20
2019-03-11T01:36:48.155Z,97609.84
2019-03-11T01:37:51.146Z,97618.72
2019-03-11T01:38:53.877Z,97628.63
2019-03-11T01:39:56.688Z,97627.36
2019-03-11T01:40:59.804Z,97611.01
2019-03-11T01:42:02.586Z,97620.41
2019-03-11T01:43:05.630Z,97616.66
2019-03-11T01:44:08.285Z,97608.64
2019-03-11T01:45:10.945Z,97617.72
2019-03-11T01:46:13.627Z,97617.72
2019-03-11T01:47:16.371Z,97606.72
2019-03-11T01:48:21.886Z,97603.76
2019-03-11T01:49:24.663Z,97594.68
2019-03-11T01:50:27.618Z,97611.55
2019-03-11T01:51:30.319Z,97587.98
2019-03-11T01:52:33.047Z,97604.00
2019-03-11T01:53:35.706Z,97598.14
2019-03-11T01:54:38.470Z,97605.11
2019-03-11T01:55:41.192Z,97588.02
2019-03-11T01:56:44.172Z,97604.83
2019-03-11T01:57:46.857Z,97591.20
2019-03-11T01:58:51.778Z,97595.00
2019-03-11T01:59:54.487Z,97586.67
2019-03-11T02:00:57.696Z,97607.28
2019-03-11T02:02:00.798Z,97590.09
2019-03-11T02:03:03.934Z,97595.44
2019-03-11T02:04:08.382Z,97589.52
2019-03-11T02:05:11.086Z,97585.51
2019-03-11T02:06:13.953Z,97585.51
2019-03-11T02:07:20.098Z,97555.20
2019-03-11T02:08:22.752Z,97582.23
2019-03-11T02:09:26.026Z,97578.42
2019-03-11T02:10:30.468Z,97563.21
2019-03-11T02:11:33.235Z,97565.03
2019-03-11T02:12:36.088Z,97558.62
2019-03-11T02:13:38.925Z,97564.23
2019-03-11T02:14:41.735Z,97564.77
2019-03-11T02:15:44.787Z,97564.77
2019-03-11T02:16:47.526Z,97556.95
2019-03-11T02:17:50.211Z,97559.12
2019-03-11T02:18:53.898Z,97560.45
2019-03-11T02:19:56.697Z,97552.89
2019-03-11T02:21:01.262Z,97558.56
2019-03-11T02:22:04.750Z,97542.19
2019-03-11T02:23:08.801Z,97560.94
2019-03-11T02:24:11.558Z,97560.94
2019-03-11T02:25:14.215Z,97562.55
2019-03-11T02:26:19.671Z,97562.55
2019-03-11T02:27:22.422Z,97566.30
2019-03-11T02:28:25.387Z,97568.98
2019-03-11T02:29:28.456Z,97564.70
2019-03-11T02:30:31.148Z,97567.63
2019-03-11T02:31:33.963Z,97567.63
2019-03-11T02:32:36.770Z,97570.80
2019-03-11T02:33:39.498Z,97574.88
2019-03-11T02:34:45.568Z,97574.36
2019-03-11T02:35:52.401Z,97570.88
2019-03-11T02:36:55.117Z,97570.88
2019-03-11T02:38:00.229Z,97553.66
2019-03-11T02:39:03.343Z,97551.56
2019-03-11T02:40:08.852Z,97551.56
2019-03-11T02:41:12.810Z,97548.36
2019-03-11T02:42:15.471Z,97553.97
2019-03-11T02:43:18.222Z,97546.14
2019-03-11T02:44:22.267Z,97546.14
2019-03-11T02:45:24.992Z,97554.73
2019-03-11T02:46:27.791Z,97562.27
2019-03-11T02:47:31.127Z,97547.80
2019-03-11T02:48:37.066Z,97549.70
2019-03-11T02:49:44.253Z,97546.75
2019-03-11T02:50:44.256Z,97534.13
2019-03-11T02:51:49.222Z,97537.59
2019-03-11T02:52:53.062Z,97537.00
2019-03-11T02:53:56.045Z,97543.46
2019-03-11T02:54:58.810Z,97547.77
2019-03-11T02:56:01.649Z,97556.66
2019-03-11T02:57:10.438Z,97556.66
2019-03-11T02:58:13.114Z,97552.11
2019-03-11T02:59:18.463Z,97549.16
2019-03-11T03:00:23.637Z,97549.96
2019-03-11T03:01:54.338Z,97549.96
2019-03-11T03:03:19.544Z,97548.07
2019-03-11T03:04:26.114Z,97551.84
2019-03-11T03:05:47.991Z,97548.39
2019-03-11T03:06:50.673Z,97562.58
2019-03-11T03:07:56.444Z,97562.58
2019-03-11T03:08:59.518Z,97567.21
2019-03-11T03:10:02.366Z,97554.83
2019-03-11T03:11:05.118Z,97558.85
2019-03-11T03:12:08.155Z,97558.89
2019-03-11T03:13:13.187Z,97557.53
2019-03-11T03:14:15.902Z,97558.06
2019-03-11T03:15:20.874Z,97552.45
2019-03-11T03:16:23.607Z,97544.98
2019-03-11T03:17:35.255Z,97551.92
2019-03-11T03:18:38.311Z,97551.61
2019-03-11T03:19:41.457Z,97557.83
2019-03-11T03:20:44.203Z,97551.37
2019-03-11T03:21:46.941Z,97545.22
2019-03-11T03:22:50.054Z,97543.03
2019-03-11T03:23:52.834Z,97545.70
2019-03-11T03:24:56.187Z,97550.77
2019-03-11T03:26:01.028Z,97523.20
2019-03-11T03:27:03.409Z,97524.70
2019-03-11T03:28:06.711Z,97544.05
2019-03-11T03:29:09.635Z,97521.59
2019-03-11T03:30:12.353Z,97532.27
2019-03-11T03:31:15.378Z,97531.70
2019-03-11T03:32:18.287Z,97548.84
2019-03-11T03:33:21.064Z,97548.05
2019-03-11T03:34:23.838Z,97537.66
2019-03-11T03:35:26.534Z,97537.66
2019-03-11T03:36:29.197Z,97536.80
2019-03-11T03:37:32.196Z,97531.20
2019-03-11T03:38:34.956Z,97544.06
2019-03-11T03:39:38.177Z,97534.89
2019-03-11T03:40:40.850Z,97532.45
2019-03-11T03:41:43.576Z,97535.20
2019-03-11T03:42:46.382Z,97538.91
2019-03-11T03:43:57.176Z,97537.88
2019-03-11T03:45:00.015Z,97535.72
2019-03-11T03:46:17.407Z,97531.72
2019-03-11T03:47:10.045Z,97530.69
2019-03-11T03:48:12.731Z,97506.73
2019-03-11T03:49:15.505Z,97526.03
2019-03-11T03:50:18.564Z,97534.87
2019-03-11T03:51:27.374Z,97519.83
2019-03-11T03:52:32.367Z,97517.95
2019-03-11T03:53:35.048Z,97528.38
2019-03-11T03:54:37.798Z,97509.06
2019-03-11T03:55:40.519Z,97509.06
2019-03-11T03:56:43.530Z,97506.55
2019-03-11T03:57:49.093Z,97491.80
2019-03-11T03:58:53.704Z,97502.27
2019-03-11T03:59:56.426Z,97502.27
2019-03-11T04:01:02.007Z,97512.95
2019-03-11T04:02:04.729Z,97517.83
2019-03-11T04:03:07.727Z,97518.14
2019-03-11T04:04:13.726Z,97506.31
2019-03-11T04:05:16.509Z,97511.41
2019-03-11T04:06:22.623Z,97511.41
2019-03-11T04:07:25.323Z,97521.30
2019-03-11T04:08:28.297Z,97499.89
2019-03-11T04:09:31.246Z,97522.67
2019-03-11T04:10:35.278Z,97499.30
2019-03-11T04:11:41.053Z,97506.24
2019-03-11T04:12:43.717Z,97522.34
2019-03-11T04:13:46.486Z,97508.66
2019-03-11T04:14:49.212Z,97523.44
2019-03-11T04:15:54.698Z,97527.72
2019-03-11T04:16:57.430Z,97513.52
2019-03-11T04:18:00.195Z,97513.52
2019-03-11T04:19:06.848Z,97521.49
2019-03-11T04:20:09.972Z,97511.34
2019-03-11T04:21:12.801Z,97542.38
2019-03-11T04:22:18.578Z,97538.41
2019-03-11T04:23:21.258Z,97512.38
2019-03-11T04:24:26.467Z,97533.49
2019-03-11T04:25:31.373Z,97528.66
2019-03-11T04:26:34.137Z,97545.06
2019-03-11T04:27:38.252Z,97545.06
2019-03-11T04:28:41.260Z,97556.36
2019-03-11T04:29:44.075Z,97536.75
2019-03-11T04:30:46.741Z,97549.09
2019-03-11T04:31:49.507Z,97561.42
2019-03-11T04:32:56.271Z,97555.86
2019-03-11T04:34:02.132Z,97558.23
2019-03-11T04:35:06.375Z,97548.27
2019-03-11T04:36:09.116Z,97554.41
2019-03-11T04:37:11.859Z,97547.98
2019-03-11T04:38:14.620Z,97563.22
2019-03-11T04:39:17.290Z,97542.33
2019-03-11T04:40:20.033Z,97541.75
2019-03-11T04:41:23.080Z,97547.67
2019-03-11T04:42:25.821Z,97556.52
2019-03-11T04:43:28.516Z,97553.73
2019-03-11T04:44:31.165Z,97552.94
2019-03-11T04:45:33.875Z,97560.99
2019-03-11T04:46:36.970Z,97562.12
2019-03-11T04:47:40.192Z,97562.12
2019-03-11T04:48:42.954Z,97563.77
2019-03-11T04:49:45.820Z,97572.09
2019-03-11T04:50:50.965Z,97568.80
2019-03-11T04:51:53.712Z,97564.78
2019-03-11T04:52:56.385Z,97568.56
2019-03-11T04:54:02.932Z,97568.56
2019-03-11T04:55:05.603Z,97558.33
2019-03-11T04:56:08.282Z,97553.85
2019-03-11T04:57:10.937Z,97553.85
2019-03-11T04:58:13.690Z,97553.52
2019-03-11T04:59:16.839Z,97551.89
2019-03-11T05:00:22.037Z,97558.30
2019-03-11T05:01:24.840Z,97556.73
2019-03-11T05:02:29.448Z,97552.17
2019-03-11T05:03:34.905Z,97551.09
2019-03-11T05:04:40.114Z,97553.02
2019-03-11T05:05:42.812Z,97539.07
2019-03-11T05:06:48.533Z,97556.67
2019-03-11T05:07:51.654Z,97541.94
2019-03-11T05:08:54.532Z,97558.59
2019-03-11T05:09:57.211Z,97558.59
2019-03-11T05:10:59.961Z,97564.18
2019-03-11T05:12:04.917Z,97558.33
2019-03-11T05:13:11.171Z,97558.59
2019-03-11T05:14:17.275Z,97555.67
2019-03-11T05:15:21.925Z,97554.59
2019-03-11T05:16:24.667Z,97552.99
2019-03-11T05:17:31.835Z,97557.90
2019-03-11T05:18:34.649Z,97565.47
2019-03-11T05:19:40.142Z,97543.98
2019-03-11T05:20:45.981Z,97543.98
2019-03-11T05:21:48.736Z,97553.53
2019-03-11T05:22:54.948Z,97553.53
2019-03-11T05:23:57.999Z,97575.84
2019-03-11T05:25:00.799Z,97564.09
2019-03-11T05:26:06.344Z,97572.88
2019-03-11T05:27:09.242Z,97569.87
2019-03-11T05:28:12.619Z,97555.65
2019-03-11T05:29:17.901Z,97561.80
2019-03-11T05:30:20.619Z,97560.22
2019-03-11T05:31:23.350Z,97562.72
2019-03-11T05:32:28.008Z,97555.75
2019-03-11T05:33:31.018Z,97559.48
2019-03-11T05:34:33.699Z,97559.48
2019-03-11T05:35:39.389Z,97549.56
2019-03-11T05:36:42.433Z,97558.95
2019-03-11T05:37:45.108Z,97560.03
2019-03-11T05:38:51.453Z,97562.21
2019-03-11T05:39:57.391Z,97562.21
2019-03-11T05:41:02.925Z,97552.61
2019-03-11T05:42:05.620Z,97570.76
2019-03-11T05:43:11.120Z,97572.92
2019-03-11T05:44:16.607Z,97571.55
2019-03-11T05:45:19.914Z,97537.49
2019-03-11T05:46:22.982Z,97537.49
2019-03-11T05:47:25.702Z,97558.38
2019-03-11T05:48:30.116Z,97562.98
2019-03-11T05:49:44.971Z,97558.93
2019-03-11T05:50:47.960Z,97566.21
2019-03-11T05:51:51.786Z,97566.21
2019-03-11T05:52:54.602Z,97558.43
2019-03-11T05:53:57.372Z,97569.69
2019-03-11T05:55:00.552Z,97579.36
2019-03-11T05:56:03.347Z,97579.36
2019-03-11T05:57:06.453Z,97573.28
2019-03-11T05:58:09.397Z,97584.80
2019-03-11T05:59:12.585Z,97584.28
2019-03-11T06:00:16.510Z,97578.42
2019-03-11T06:01:19.216Z,97568.23
2019-03-11T06:02:22.003Z,97568.23
2019-03-11T06:03:27.291Z,97591.81
2019-03-11T06:04:30.629Z,97593.13
2019-03-11T06:05:33.526Z,97593.13
2019-03-11T06:06:36.262Z,97591.77
2019-03-11T06:07:39.427Z,97579.83
2019-03-11T06:08:42.149Z,97589.24
2019-03-11T06:09:45.145Z,97591.14
2019-03-11T06:10:47.877Z,97591.14
2019-03-11T06:11:50.892Z,97582.70
2019-03-11T06:12:54.935Z,97582.70
2019-03-11T06:13:58.288Z,97589.73
2019-03-11T06:15:01.419Z,97589.73
2019-03-11T06:16:04.415Z,97593.23
2019-03-11T06:17:07.254Z,97601.45
2019-03-11T06:18:10.081Z,97585.37
2019-03-11T06:19:17.727Z,97607.00
2019-03-11T06:20:37.925Z,97599.80
2019-03-11T06:21:50.502Z,97599.80
2019-03-11T06:22:53.187Z,97612.92
2019-03-11T06:23:55.983Z,97619.14
2019-03-11T06:24:59.140Z,97604.65
2019-03-11T06:26:01.838Z,97607.62
2019-03-11T06:27:04.599Z,97604.61
2019-03-11T06:28:09.490Z,97614.03
2019-03-11T06:29:12.278Z,97606.25
2019-03-11T06:43:56.251Z,97587.10
2019-03-11T06:44:59.508Z,97601.38
2019-03-11T06:46:02.381Z,97601.38
2019-03-11T06:47:05.223Z,97606.67
2019-03-11T06:48:08.375Z,97607.73
2019-03-11T06:49:11.566Z,97574.27
2019-03-11T06:50:14.328Z,97606.97
2019-03-11T06:51:17.138Z,97620.07
2019-03-11T06:52:19.870Z,97620.07
2019-03-11T06:53:23.125Z,97605.05
2019-03-11T06:54:25.917Z,97602.44
2019-03-11T06:55:28.995Z,97613.93
2019-03-11T06:56:34.576Z,97613.93
2019-03-11T06:57:40.297Z,97587.83
2019-03-11T06:58:47.616Z,97628.11
2019-03-11T06:59:47.754Z,97623.61
2019-03-11T07:00:51.449Z,97624.70
2019-03-11T07:01:54.561Z,97624.70
2019-03-11T07:02:57.226Z,97628.31
2019-03-11T07:03:59.951Z,97651.43
2019-03-11T07:05:03.094Z,97651.43
2019-03-11T07:06:06.176Z,97649.08
2019-03-11T07:07:10.585Z,97635.41
2019-03-11T07:08:27.635Z,97644.78
2019-03-11T07:09:30.443Z,97656.05
2019-03-11T07:10:33.134Z,97643.72
2019-03-11T07:11:35.849Z,97643.72
2019-03-11T07:12:38.776Z,97651.48
2019-03-11T07:13:43.863Z,97655.49
2019-03-11T07:14:47.045Z,97648.53
2019-03-11T07:15:52.906Z,97645.29
2019-03-11T07:16:55.584Z,97635.41
2019-03-11T07:17:58.684Z,97621.66
2019-03-11T07:19:01.356Z,97639.86
2019-03-11T07:20:04.625Z,97602.91
2019-03-11T07:21:09.780Z,97642.27
2019-03-11T07:22:14.503Z,97637.69
2019-03-11T07:23:16.919Z,97644.66
2019-03-11T07:24:20.004Z,97644.66
2019-03-11T07:25:25.183Z,97652.64
2019-03-11T07:26:30.162Z,97652.64
2019-03-11T07:27:33.359Z,97650.78
2019-03-11T07:28:36.413Z,97656.38
2019-03-11T07:29:39.093Z,97657.77
2019-03-11T07:30:45.812Z,97657.77
2019-03-11T07:31:48.479Z,97647.52
2019-03-11T07:32:51.228Z,97660.30
2019-03-11T07:33:58.860Z,97654.92
2019-03-11T07:35:08.415Z,97643.70
2019-03-11T07:36:06.470Z,97652.61
2019-03-11T07:37:12.023Z,97652.61
2019-03-11T07:38:14.844Z,97659.56
2019-03-11T07:39:17.995Z,97646.45
2019-03-11T07:40:29.748Z,97641.87
2019-03-11T07:41:29.237Z,97641.87
2019-03-11T07:42:34.292Z,97665.22
2019-03-11T07:43:37.011Z,97659.45
2019-03-11T07:44:39.896Z,97659.45
2019-03-11T07:45:43.565Z,97672.37
2019-03-11T07:46:47.075Z,97657.06
2019-03-11T07:47:50.365Z,97623.36
2019-03-11T07:48:53.084Z,97652.86
2019-03-11T07:49:55.790Z,97650.45
2019-03-11T07:50:58.474Z,97647.48
2019-03-11T07:52:02.659Z,97647.48
2019-03-11T07:53:06.209Z,97664.91
2019-03-11T07:54:10.001Z,97665.14
2019-03-11T07:55:12.825Z,97647.73
2019-03-11T07:56:16.048Z,97647.73
2019-03-11T07:57:19.361Z,97638.05
2019-03-11T07:58:22.537Z,97676.38
2019-03-11T07:59:25.264Z,97657.38
2019-03-11T08:00:28.187Z,97656.84
2019-03-11T08:01:48.726Z,97663.30
2019-03-11T08:02:57.810Z,97678.52
2019-03-11T08:04:00.683Z,97661.37
2019-03-11T08:05:03.778Z,97661.37
2019-03-11T08:06:14.831Z,97692.47
2019-03-11T08:07:11.321Z,97684.70
2019-03-11T08:08:14.028Z,97697.28
2019-03-11T08:09:17.036Z,97674.50
2019-03-11T08:10:22.506Z,97691.67
2019-03-11T08:11:28.972Z,97650.95
2019-03-11T08:12:33.387Z,97698.87
2019-03-11T08:13:36.174Z,97697.28
2019-03-11T08:14:39.298Z,97713.62
2019-03-11T08:15:42.007Z,97696.73
2019-03-11T08:16:46.228Z,97710.92
2019-03-11T08:17:49.427Z,97710.92
2019-03-11T08:18:52.244Z,97713.63
2019-03-11T08:19:55.324Z,97684.41
2019-03-11T08:20:58.740Z,97714.12
2019-03-11T08:22:01.435Z,97714.12
2019-03-11T08:23:07.321Z,97702.61
2019-03-11T08:24:10.409Z,97690.25
2019-03-11T08:25:16.045Z,97704.17
2019-03-11T08:26:20.188Z,97719.20
2019-03-11T08:27:22.860Z,97719.20
2019-03-11T08:28:25.663Z,97707.70
2019-03-11T08:29:29.092Z,97718.09
2019-03-11T08:30:32.164Z,97732.05
2019-03-11T08:31:38.516Z,97721.36
2019-03-11T08:32:41.278Z,97721.36
2019-03-11T08:33:44.125Z,97734.75
2019-03-11T08:34:46.890Z,97734.75
2019-03-11T08:35:55.205Z,97719.47
2019-03-11T08:36:57.254Z,97719.47
2019-03-11T08:38:05.226Z,97729.13
2019-03-11T08:39:06.871Z,97729.13
2019-03-11T08:40:09.803Z,97749.20
2019-03-11T08:41:12.630Z,97733.95
2019-03-11T08:42:15.903Z,97751.89
2019-03-11T08:43:19.153Z,97745.45
2019-03-11T08:44:40.698Z,97745.97
2019-03-11T08:45:43.651Z,97738.19
2019-03-11T08:46:46.493Z,97738.19
2019-03-11T08:47:50.223Z,97742.74
2019-03-11T08:48:56.134Z,97743.52
2019-03-11T08:50:01.363Z,97723.95
2019-03-11T08:51:04.272Z,97731.75
2019-03-11T08:52:07.114Z,97731.75
2019-03-11T08:53:09.909Z,97740.30
2019-03-11T08:54:14.440Z,97745.13
2019-03-11T08:55:17.597Z,97728.24
2019-03-11T08:56:23.269Z,97730.60
2019-03-11T08:57:28.809Z,97749.91
2019-03-11T08:58:31.700Z,97729.77
2019-03-11T08:59:34.386Z,97733.78
2019-03-11T09:00:37.290Z,97725.73
2019-03-11T09:02:03.127Z,97725.73
2019-03-11T09:02:45.410Z,97756.84
2019-03-11T09:03:53.800Z,97754.45
2019-03-11T09:04:56.688Z,97734.28
2019-03-11T09:06:03.168Z,97741.53
2019-03-11T09:07:07.452Z,97754.34
2019-03-11T09:08:14.220Z,97738.86
2019-03-11T09:09:22.708Z,97759.75
2019-03-11T09:10:27.854Z,97748.75
2019-03-11T09:11:30.803Z,97748.75
2019-03-11T09:12:33.859Z,97751.73
2019-03-11T09:13:42.246Z,97751.73
2019-03-11T09:14:49.255Z,97744.20
2019-03-11T09:15:53.026Z,97753.03
2019-03-11T09:16:56.380Z,97753.03
2019-03-11T09:18:05.492Z,97757.11
2019-03-11T09:19:08.746Z,97757.11
2019-03-11T09:20:13.761Z,97772.42
2019-03-11T09:21:16.776Z,97766.53
2019-03-11T09:22:19.741Z,97771.59
2019-03-11T09:23:22.722Z,97771.59
2019-03-11T09:24:25.525Z,97748.64
2019-03-11T09:25:28.372Z,97766.90
2019-03-11T09:26:31.107Z,97780.32
2019-03-11T09:27:36.098Z,97773.39
2019-03-11T09:28:38.925Z,97766.96
2019-03-11T09:29:41.902Z,97775.55
2019-03-11T09:30:44.754Z,97771.53
2019-03-11T09:31:47.645Z,97754.63
2019-03-11T09:32:52.921Z,97775.22
2019-03-11T09:34:03.687Z,97784.87
2019-03-11T09:35:08.270Z,97770.16
2019-03-11T09:36:20.104Z,97784.09
2019-03-11T09:37:24.663Z,97784.09
2019-03-11T09:38:30.263Z,97789.19
2019-03-11T09:39:40.551Z,97780.59
2019-03-11T09:40:43.776Z,97785.70
2019-03-11T09:41:47.090Z,97785.70
2019-03-11T09:42:52.089Z,97790.77
2019-03-11T09:43:55.379Z,97790.77
2019-03-11T09:44:58.074Z,97785.68
2019-03-11T09:46:02.420Z,97791.29
2019-03-11T09:47:08.085Z,97779.81
2019-03-11T09:48:10.978Z,97784.08
2019-03-11T09:49:14.762Z,97794.23
2019-03-11T09:50:17.632Z,97792.89
2019-03-11T09:51:20.548Z,97792.89
2019-03-11T09:52:23.682Z,97791.80
2019-03-11T09:53:30.688Z,97814.31
2019-03-11T09:54:33.877Z,97807.08
2019-03-11T09:55:36.819Z,97810.54
2019-03-11T09:56:43.709Z,97808.42
2019-03-11T09:57:45.052Z,97808.42
2019-03-11T09:58:48.869Z,97820.98
2019-03-11T09:59:52.094Z,97805.39
2019-03-11T10:00:55.100Z,97791.70
2019-03-11T10:02:01.353Z,97793.25
2019-03-11T10:03:04.866Z,97793.25
2019-03-11T10:04:08.708Z,97809.75
2019-03-11T10:05:11.987Z,97803.25
2019-03-11T10:06:16.771Z,97807.24
2019-03-11T10:07:20.697Z,97807.24
2019-03-11T10:08:23.960Z,97813.70
2019-03-11T10:09:26.867Z,97813.70
2019-03-11T10:10:29.614Z,97801.10
2019-03-11T10:11:33.242Z,97801.10
2019-03-11T10:12:36.207Z,97816.98
2019-03-11T10:13:39.284Z,97804.35
2019-03-11T10:14:42.329Z,97804.35
2019-03-11T10:15:45.215Z,97815.94
2019-03-11T10:16:52.505Z,97815.94
2019-03-11T10:17:55.472Z,97817.28
2019-03-11T10:19:00.949Z,97814.30
2019-03-11T10:20:03.793Z,97798.18
2019-03-11T10:21:08.899Z,97798.18
2019-03-11T10:22:11.753Z,97836.83
2019-03-11T10:23:18.277Z,97822.63
2019-03-11T10:24:21.001Z,97828.53
2019-03-11T10:25:31.332Z,97857.55
2019-03-11T10:26:34.242Z,97851.09
2019-03-11T10:27:37.106Z,97836.64
2019-03-11T10:28:40.049Z,97836.64
2019-03-11T10:29:43.491Z,97831.77
2019-03-11T10:30:46.714Z,97850.58
2019-03-11T10:31:49.780Z,97859.95
2019-03-11T10:32:52.666Z,97847.34
2019-03-11T10:33:55.573Z,97847.34
2019-03-11T10:35:00.007Z,97846.27
2019-03-11T10:36:04.403Z,97853.80
2019-03-11T10:37:07.281Z,97835.02
2019-03-11T10:38:10.244Z,97855.95
2019-03-11T10:39:13.210Z,97855.95
2019-03-11T10:40:23.728Z,97862.06
2019-03-11T10:41:26.984Z,97856.70
2019-03-11T10:42:30.178Z,97870.94
2019-03-11T10:43:33.713Z,97875.48
2019-03-11T10:44:36.644Z,97881.40
2019-03-11T10:45:39.576Z,97872.03
2019-03-11T10:46:44.842Z,97881.98
2019-03-11T10:47:49.025Z,97876.05
2019-03-11T10:48:52.767Z,97860.99
2019-03-11T10:49:59.576Z,97854.03
2019-03-11T10:51:05.547Z,97877.13
2019-03-11T10:52:11.410Z,97858.06
2019-03-11T10:53:16.986Z,97881.36
2019-03-11T10:54:20.093Z,97868.23
2019-03-11T10:55:23.606Z,97868.23
2019-03-11T10:56:26.479Z,97880.01
2019-03-11T10:57:29.332Z,97878.39
2019-03-11T10:58:35.015Z,97857.14
2019-03-11T10:59:45.195Z,97882.37
2019-03-11T11:00:50.358Z,97893.64
2019-03-11T11:01:57.034Z,97889.63
2019-03-11T11:03:02.129Z,97896.30
2019-03-11T11:04:08.347Z,97887.73
2019-03-11T11:05:11.370Z,97893.59
2019-03-11T11:06:17.026Z,97883.14
2019-03-11T11:07:18.953Z,97883.14
2019-03-11T11:08:22.646Z,97901.08
2019-03-11T11:09:25.513Z,97901.08
2019-03-11T11:10:28.404Z,97903.24
2019-03-11T11:11:36.260Z,97905.42
2019-03-11T11:12:37.444Z,97905.42
2019-03-11T11:13:43.144Z,97889.30
2019-03-11T11:14:46.267Z,97899.20
2019-03-11T11:15:49.084Z,97899.20
2019-03-11T11:16:56.286Z,97916.36
2019-03-11T11:17:59.225Z,97916.88
2019-03-11T11:19:02.560Z,97916.34
2019-03-11T11:20:05.741Z,97920.13
2019-03-11T11:21:11.393Z,97925.22
2019-03-11T11:22:14.375Z,97925.22
2019-03-11T11:23:17.250Z,97920.14
2019-03-11T11:24:33.144Z,97910.52
2019-03-11T11:25:36.160Z,97909.39
2019-03-11T11:26:46.259Z,97905.37
2019-03-11T11:27:58.245Z,97897.56
2019-03-11T11:29:01.242Z,97917.16
2019-03-11T11:30:04.639Z,97907.48
2019-03-11T11:42:42.715Z,97910.18
2019-03-11T11:43:48.466Z,97930.48
2019-03-11T11:44:54.386Z,97927.99
2019-03-11T11:45:57.807Z,97927.99
2019-03-11T11:47:00.960Z,97923.41
2019-03-11T11:48:08.431Z,97923.41
2019-03-11T11:49:13.271Z,97909.70
2019-03-11T11:50:16.201Z,97922.09
2019-03-11T11:51:19.693Z,97912.62
2019-03-11T11:52:22.781Z,97906.66
2019-03-11T11:53:26.629Z,97896.13
2019-03-11T11:54:33.543Z,97896.13
2019-03-11T11:55:37.079Z,97914.23
2019-03-11T11:57:52.162Z,97902.25
2019-03-11T11:58:55.595Z,97894.80
2019-03-11T11:59:59.098Z,97902.48
2019-03-11T12:01:04.145Z,97898.77
2019-03-11T12:02:07.168Z,97910.97
2019-03-11T12:03:10.155Z,97901.48
2019-03-11T12:04:13.745Z,97901.48
2019-03-11T12:05:16.766Z,97919.34
2019-03-11T12:06:20.132Z,97919.34
2019-03-11T12:07:23.134Z,97918.91
2019-03-11T12:08:25.889Z,97918.91
2019-03-11T12:09:30.825Z,97922.08
2019-03-11T12:10:33.736Z,97912.28
2019-03-11T12:11:40.689Z,97930.41
2019-03-11T12:12:52.761Z,97923.88
2019-03-11T12:13:57.218Z,97923.29
2019-03-11T12:15:05.125Z,97929.94
2019-03-11T12:16:07.953Z,97923.34
2019-03-11T12:17:12.109Z,97917.79
2019-03-11T12:18:17.570Z,97917.79
2019-03-11T12:19:21.978Z,97919.40
2019-03-11T12:20:24.727Z,97925.90
2019-03-11T12:21:29.689Z,97925.90
2019-03-11T12:22:35.798Z,97927.89
2019-03-11T12:23:46.177Z,97924.17
2019-03-11T12:24:46.454Z,97934.67
2019-03-11T12:25:49.642Z,97934.67
2019-03-11T12:26:52.358Z,97892.48
2019-03-11T12:27:57.907Z,97918.38
2019-03-11T12:28:59.855Z,97918.38
2019-03-11T12:30:03.060Z,97922.48
2019-03-11T12:31:05.717Z,97922.48
2019-03-11T12:32:10.578Z,97902.75
2019-03-11T12:33:15.615Z,97909.56
2019-03-11T12:34:23.767Z,97908.28
2019-03-11T12:35:27.455Z,97922.09
2019-03-11T12:36:31.595Z,97922.09
2019-03-11T12:37:34.681Z,97924.88
2019-03-11T12:38:38.168Z,97905.22
2019-03-11T12:39:40.909Z,97920.57
2019-03-11T12:40:43.882Z,97934.47
2019-03-11T12:41:47.219Z,97902.34
2019-03-11T12:42:52.870Z,97931.35
2019-03-11T12:43:59.095Z,97922.97
2019-03-11T12:45:01.795Z,97920.21
2019-03-11T12:46:04.829Z,97912.48
2019-03-11T12:47:08.203Z,97944.09
2019-03-11T12:48:14.046Z,97939.11
2019-03-11T12:49:20.036Z,97931.42
2019-03-11T12:50:26.305Z,97942.30
2019-03-11T12:51:29.159Z,97936.98
2019-03-11T12:52:34.367Z,97945.03
2019-03-11T12:53:37.082Z,97927.53
2019-03-11T12:54:39.951Z,97927.53
2019-03-11T12:56:57.871Z,97934.98
2019-03-11T12:58:00.673Z,97906.97
2019-03-11T12:59:03.826Z,97930.30
2019-03-11T13:00:06.994Z,97933.34
2019-03-11T13:01:09.762Z,97922.64